Time;durP1;ratioP1;P1;durP2;ratioP2;P2;SDS_P1;SDS_P2;PMS_P1;PMS_P2;Temp;Humidity;BMP_temperature;BMP_pressure;BME280_temperature;BME280_humidity;BME280_pressure;Samples;Min_cycle;Max_cycle;Signal;HPM_P1;HPM_P2
2023/07/16 00:02:21;;;;;;;8.07;3.17;;;;;;;16.78;100.00;100615.28;5035662;28;20037;-48
2023/07/16 00:04:46;;;;;;;10.15;3.95;;;;;;;16.96;100.00;100634.56;5035557;28;20628;-54
2023/07/16 00:07:11;;;;;;;7.05;3.28;;;;;;;16.90;100.00;100627.81;5035365;28;20037;-49
2023/07/16 00:09:37;;;;;;;10.32;3.38;;;;;;;16.55;100.00;100566.19;5036201;28;20069;-51
2023/07/16 00:12:03;;;;;;;12.95;4.22;;;;;;;16.56;100.00;100570.56;5034601;28;20508;-53
2023/07/16 00:14:28;;;;;;;9.10;3.50;;;;;;;16.86;100.00;100624.50;5035675;28;20037;-57
2023/07/16 00:16:53;;;;;;;8.65;4.45;;;;;;;16.90;100.00;100633.13;5024005;28;20040;-52
2023/07/16 00:19:19;;;;;;;6.53;3.75;;;;;;;16.92;100.00;100641.00;5055494;28;20128;-50
2023/07/16 00:21:44;;;;;;;10.52;4.78;;;;;;;16.90;100.00;100646.41;5055090;28;20200;-55
2023/07/16 00:24:09;;;;;;;9.23;4.13;;;;;;;16.90;100.00;100634.94;5037413;28;20041;-51
2023/07/16 00:26:35;;;;;;;8.77;4.22;;;;;;;16.88;100.00;100641.19;5049533;28;20108;-53
2023/07/16 00:29:00;;;;;;;8.18;4.32;;;;;;;16.81;100.00;100631.88;5035580;28;20029;-49
2023/07/16 00:31:25;;;;;;;10.77;4.13;;;;;;;16.90;100.00;100629.63;5034005;28;20041;-48
2023/07/16 00:33:51;;;;;;;8.55;4.43;;;;;;;16.90;100.00;100627.81;5035373;28;20044;-54
2023/07/16 00:36:16;;;;;;;10.23;4.50;;;;;;;16.91;100.00;100628.66;5048403;28;20551;-48
2023/07/16 00:38:42;;;;;;;11.85;4.50;;;;;;;16.76;100.00;100626.00;5035136;28;20109;-51
2023/07/16 00:41:08;;;;;;;15.60;4.45;;;;;;;16.57;100.00;100566.97;5035248;28;20512;-56
2023/07/16 00:43:33;;;;;;;11.63;4.57;;;;;;;16.92;100.00;100635.69;5033653;28;20029;-48
2023/07/16 00:45:59;;;;;;;12.32;4.03;;;;;;;16.85;100.00;100608.63;5035096;28;20033;-52
2023/07/16 00:48:25;;;;;;;9.23;4.28;;;;;;;16.56;100.00;100570.56;5038885;28;20033;-52
2023/07/16 00:50:51;;;;;;;8.80;4.13;;;;;;;16.90;100.00;100627.81;5031406;28;20029;-55
2023/07/16 00:53:16;;;;;;;6.25;4.00;;;;;;;16.65;100.00;100577.97;5020530;28;20051;-49
2023/07/16 00:55:42;;;;;;;9.48;4.97;;;;;;;16.57;100.00;100569.63;5053023;28;20116;-56
2023/07/16 00:58:07;;;;;;;8.02;3.85;;;;;;;16.66;100.00;100586.81;5054216;28;20040;-49
2023/07/16 01:00:34;;;;;;;15.05;4.93;;;;;;;16.62;100.00;100567.53;5054548;28;20503;-51
2023/07/16 01:03:02;;;;;;;10.30;5.05;;;;;;;16.76;100.00;100588.78;5054655;28;20527;-48
2023/07/16 01:05:43;;;;;;;7.30;4.30;;;;;;;16.71;100.00;100582.06;5037057;28;20391;-51
2023/07/16 01:08:10;;;;;;;15.15;4.70;;;;;;;16.99;100.00;100645.03;5037526;28;20068;-53
2023/07/16 01:10:37;;;;;;;13.13;4.68;;;;;;;16.99;100.00;100648.50;5034607;28;20120;-50
2023/07/16 01:13:03;;;;;;;10.23;5.00;;;;;;;16.84;100.00;100621.06;5033027;28;20057;-51
2023/07/16 01:15:28;;;;;;;10.02;4.88;;;;;;;16.93;100.00;100637.41;5037969;28;20134;-51
2023/07/16 01:17:53;;;;;;;10.10;5.47;;;;;;;16.92;100.00;100641.00;5040053;28;20123;-56
2023/07/16 01:20:19;;;;;;;10.25;5.40;;;;;;;16.90;100.00;100641.09;5034221;28;20201;-52
2023/07/16 01:22:59;;;;;;;11.05;5.53;;;;;;;16.86;100.00;100637.78;5034226;28;20037;-51
2023/07/16 01:25:34;;;;;;;12.07;5.10;;;;;;;16.51;100.00;100593.00;5026691;28;20045;-50
2023/07/16 01:28:38;;;;;;;10.95;5.43;;;;;;;16.77;100.00;100641.00;5034480;28;20575;-50
2023/07/16 01:31:04;;;;;;;15.07;5.20;;;;;;;16.52;100.00;100590.25;5024469;28;20041;-53
2023/07/16 01:33:29;;;;;;;10.45;5.10;;;;;;;16.38;100.00;100568.97;5016470;28;20036;-50
2023/07/16 01:35:55;;;;;;;14.60;5.22;;;;;;;16.24;100.00;100572.47;5033647;28;20044;-50
2023/07/16 01:38:23;;;;;;;11.48;5.15;;;;;;;16.78;100.00;100639.22;5016021;28;20045;-51
2023/07/16 01:40:48;;;;;;;12.27;6.03;;;;;;;16.34;100.00;100562.16;5016488;28;20029;-54
2023/07/16 01:43:14;;;;;;;9.23;5.28;;;;;;;16.76;100.00;100636.63;5050851;28;20037;-51
2023/07/16 01:45:39;;;;;;;13.90;5.55;;;;;;;16.77;100.00;100629.50;5035304;28;20468;-51
2023/07/16 01:48:29;;;;;;;14.05;6.57;;;;;;;16.78;100.00;100621.44;5033950;28;20036;-54
2023/07/16 01:50:54;;;;;;;13.90;6.07;;;;;;;16.83;100.00;100632.66;5028652;28;20396;-49
2023/07/16 01:53:20;;;;;;;12.45;6.28;;;;;;;16.48;100.00;100564.84;5016305;28;20121;-52
2023/07/16 01:55:45;;;;;;;13.93;7.15;;;;;;;16.87;100.00;100625.31;5033185;28;20064;-49
2023/07/16 01:58:11;;;;;;;13.40;6.30;;;;;;;16.78;100.00;100617.94;5034217;28;20038;-54
2023/07/16 02:00:36;;;;;;;11.40;6.72;;;;;;;16.85;100.00;100640.53;5033766;28;20069;-57
2023/07/16 02:03:02;;;;;;;17.80;6.75;;;;;;;16.86;100.00;100631.63;5049058;28;20481;-53
2023/07/16 02:05:27;;;;;;;13.23;6.35;;;;;;;16.87;100.00;100644.81;5032872;28;20053;-54
2023/07/16 02:07:52;;;;;;;9.65;5.55;;;;;;;16.83;100.00;100626.50;5033683;28;20045;-53
2023/07/16 02:10:18;;;;;;;17.70;7.35;;;;;;;16.52;100.00;100581.44;5015646;28;20033;-57
2023/07/16 02:12:43;;;;;;;9.32;6.88;;;;;;;16.85;100.00;100638.72;5033440;28;20038;-59
2023/07/16 02:15:09;;;;;;;9.57;5.93;;;;;;;16.86;100.00;100639.59;5032882;28;20041;-53
2023/07/16 02:17:34;;;;;;;9.65;6.20;;;;;;;16.87;100.00;100628.00;5032774;28;20037;-55
2023/07/16 02:20:00;;;;;;;15.05;6.63;;;;;;;16.39;100.00;100546.78;5032723;28;20037;-57
2023/07/16 02:22:25;;;;;;;15.45;7.47;;;;;;;16.84;100.00;100633.53;5033061;28;20066;-53
2023/07/16 02:24:50;;;;;;;10.07;6.65;;;;;;;16.83;100.00;100630.00;5036176;28;20051;-51
2023/07/16 02:27:15;;;;;;;13.40;6.53;;;;;;;16.30;100.00;100531.41;5053302;28;20048;-51
2023/07/16 02:29:41;;;;;;;15.90;7.75;;;;;;;16.44;100.00;100555.31;5051679;28;20045;-52
2023/07/16 02:32:07;;;;;;;11.48;6.95;;;;;;;16.89;100.00;100631.44;5047801;28;20037;-52
2023/07/16 02:34:32;;;;;;;12.73;6.13;;;;;;;16.87;100.00;100626.19;5034299;28;20037;-56
2023/07/16 02:36:57;;;;;;;17.30;7.43;;;;;;;16.87;100.00;100620.00;5045532;28;20472;-51
2023/07/16 02:39:23;;;;;;;11.73;7.25;;;;;;;16.47;100.00;100562.25;5032070;28;20049;-54
2023/07/16 02:41:49;;;;;;;17.52;7.63;;;;;;;16.52;100.00;100562.84;5042818;28;20040;-53
2023/07/16 02:44:14;;;;;;;14.48;7.38;;;;;;;16.76;100.00;100609.19;5047826;28;20507;-54
2023/07/16 02:46:39;;;;;;;15.57;6.93;;;;;;;16.92;100.00;100646.34;5032695;28;20462;-57
2023/07/16 02:49:05;;;;;;;14.98;6.70;;;;;;;16.49;100.00;100563.03;5034128;28;24005;-59
2023/07/16 02:51:30;;;;;;;11.40;7.25;;;;;;;16.84;100.00;100629.03;5053150;28;20534;-55
2023/07/16 02:53:55;;;;;;;14.77;6.53;;;;;;;16.42;100.00;100559.03;5051128;28;20032;-59
2023/07/16 02:56:21;;;;;;;11.60;6.72;;;;;;;16.50;100.00;100560.25;5032637;28;20083;-58
2023/07/16 02:58:46;;;;;;;12.73;7.00;;;;;;;16.50;100.00;100565.59;5032541;28;20087;-56
2023/07/16 03:01:12;;;;;;;13.75;6.53;;;;;;;16.84;100.00;100628.22;5041002;28;20533;-54
2023/07/16 03:03:37;;;;;;;18.13;7.50;;;;;;;16.44;100.00;100575.72;5051414;28;20554;-56
2023/07/16 03:06:02;;;;;;;13.02;5.68;;;;;;;16.81;100.00;100644.34;5036789;28;20473;-54
2023/07/16 03:08:29;;;;;;;13.55;6.13;;;;;;;16.80;100.00;100651.47;5032686;28;20399;-52
2023/07/16 03:10:56;;;;;;;11.90;6.03;;;;;;;16.75;100.00;100644.72;5032596;28;20034;-52
2023/07/16 03:13:21;;;;;;;13.10;6.25;;;;;;;16.24;100.00;100583.09;5032437;28;20500;-57
2023/07/16 03:15:47;;;;;;;8.57;5.70;;;;;;;16.26;100.00;100594.47;5031060;28;20037;-55
2023/07/16 03:18:12;;;;;;;13.10;5.63;;;;;;;16.26;100.00;100609.53;5032354;28;20077;-54
2023/07/16 03:20:37;;;;;;;11.77;5.45;;;;;;;16.24;100.00;100600.81;5031981;28;20061;-53
2023/07/16 03:23:03;;;;;;;10.60;5.50;;;;;;;16.68;100.00;100672.59;5032459;28;20473;-54
2023/07/16 03:25:28;;;;;;;10.00;6.00;;;;;;;16.63;100.00;100670.22;5031777;28;20047;-55
2023/07/16 03:27:53;;;;;;;11.10;4.28;;;;;;;16.51;100.00;100638.19;5013761;28;20040;-54
2023/07/16 03:30:19;;;;;;;7.55;4.63;;;;;;;16.46;100.00;100629.63;5032193;28;20117;-56
2023/07/16 03:32:44;;;;;;;12.38;5.15;;;;;;;16.33;100.00;100593.19;5032134;28;20056;-58
2023/07/16 03:35:09;;;;;;;9.18;4.90;;;;;;;16.81;100.00;100655.81;5031535;28;20041;-57
2023/07/16 03:37:35;;;;;;;10.93;4.82;;;;;;;16.51;100.00;100612.47;5032067;28;20090;-61
2023/07/16 03:40:14;;;;;;;10.52;5.43;;;;;;;16.49;100.00;100616.16;5032052;28;20038;-53
2023/07/16 03:42:40;;;;;;;9.82;4.90;;;;;;;16.86;100.00;100679.47;5032098;28;20034;-54
2023/07/16 03:45:06;;;;;;;12.07;5.30;;;;;;;16.76;100.00;100675.63;5031281;28;20052;-51
2023/07/16 03:47:31;;;;;;;13.80;5.93;;;;;;;16.72;100.00;100677.63;5031863;28;20044;-55
2023/07/16 03:49:56;;;;;;;10.35;5.43;;;;;;;16.70;100.00;100697.28;5032025;28;20104;-58
2023/07/16 03:52:22;;;;;;;9.93;5.35;;;;;;;16.30;100.00;100627.88;5032289;28;20040;-58
2023/07/16 03:54:47;;;;;;;12.48;5.47;;;;;;;16.77;100.00;100715.44;5035111;28;20103;-59
2023/07/16 03:57:12;;;;;;;13.95;5.63;;;;;;;16.70;100.00;100686.63;5031966;28;20029;-53
2023/07/16 03:59:37;;;;;;;10.00;5.90;;;;;;;16.38;100.00;100643.34;5047289;28;20030;-51
2023/07/16 04:02:03;;;;;;;12.02;5.70;;;;;;;16.33;100.00;100624.19;5032829;28;20386;-49
2023/07/16 04:04:28;;;;;;;14.27;6.25;;;;;;;16.73;100.00;100700.59;5029746;28;20103;-52
2023/07/16 04:06:55;;;;;;;10.27;5.15;;;;;;;16.24;100.00;100619.41;5031441;28;20087;-56
2023/07/16 04:09:20;;;;;;;11.27;6.20;;;;;;;16.66;100.00;100709.06;5030509;28;20038;-57
2023/07/16 04:11:46;;;;;;;11.77;6.32;;;;;;;16.15;100.00;100641.19;5031652;28;20042;-56
2023/07/16 04:14:11;;;;;;;12.82;7.03;;;;;;;16.57;100.00;100721.09;5031567;28;20052;-56
2023/07/16 04:16:36;;;;;;;10.80;6.40;;;;;;;16.19;100.00;100645.41;5031727;28;20033;-54
2023/07/16 04:19:01;;;;;;;15.77;6.80;;;;;;;16.54;100.00;100715.94;5031855;28;20075;-51
2023/07/16 04:21:27;;;;;;;10.48;6.25;;;;;;;16.57;100.00;100717.56;5031807;28;20073;-55
2023/07/16 04:23:52;;;;;;;11.90;6.03;;;;;;;16.66;100.00;100712.56;5031460;28;20076;-60
2023/07/16 04:26:17;;;;;;;15.50;7.10;;;;;;;16.64;100.00;100702.94;5038923;28;20125;-52
2023/07/16 04:28:43;;;;;;;10.52;7.18;;;;;;;16.39;100.00;100670.78;5033840;28;20080;-52
2023/07/16 04:31:08;;;;;;;14.18;5.65;;;;;;;16.34;100.00;100649.81;5050034;28;20060;-52
2023/07/16 04:33:33;;;;;;;12.57;6.68;;;;;;;16.81;100.00;100732.91;5049658;28;20483;-56
2023/07/16 04:35:59;;;;;;;10.88;6.30;;;;;;;16.86;100.00;100744.13;5031855;28;20029;-54
2023/07/16 04:38:24;;;;;;;11.48;6.63;;;;;;;16.75;100.00;100700.53;5032704;28;20546;-48
2023/07/16 04:40:49;;;;;;;12.55;6.72;;;;;;;16.90;100.00;100735.97;5035414;28;20037;-49
2023/07/16 04:43:15;;;;;;;12.32;6.15;;;;;;;16.97;100.00;100734.63;5029389;28;20037;-56
2023/07/16 04:45:40;;;;;;;15.27;6.97;;;;;;;17.08;100.00;100764.97;5055004;28;20095;-54
2023/07/16 04:48:06;;;;;;;11.98;7.03;;;;;;;17.10;100.00;100752.44;5054939;28;20081;-57
2023/07/16 04:50:31;;;;;;;9.93;5.93;;;;;;;16.75;100.00;100700.53;5054849;28;20037;-55
2023/07/16 04:52:56;;;;;;;14.45;5.78;;;;;;;16.67;100.00;100689.47;5054722;28;20040;-55
2023/07/16 04:55:21;;;;;;;13.68;6.10;;;;;;;17.05;100.00;100745.66;5053755;28;20040;-54
2023/07/16 04:57:47;;;;;;;9.23;6.35;;;;;;;16.97;100.00;100729.31;5049216;28;20136;-56
2023/07/16 05:00:12;;;;;;;9.07;5.47;;;;;;;16.73;100.00;100686.47;5050171;28;20041;-57
2023/07/16 05:02:38;;;;;;;11.25;5.85;;;;;;;17.18;100.00;100758.16;5054557;28;20111;-56
2023/07/16 05:05:03;;;;;;;9.65;5.30;;;;;;;17.23;100.00;100772.00;5032383;28;20041;-57
2023/07/16 05:07:29;;;;;;;10.65;6.28;;;;;;;17.21;100.00;100754.44;5035190;28;20041;-58
2023/07/16 05:09:54;;;;;;;11.77;5.68;;;;;;;17.19;100.00;100770.47;5034706;28;20036;-59
2023/07/16 05:12:19;;;;;;;8.23;5.65;;;;;;;16.89;100.00;100727.13;5034609;28;20045;-54
2023/07/16 05:14:47;;;;;;;8.80;6.38;;;;;;;16.81;100.00;100719.59;5037331;28;20033;-58
2023/07/16 05:17:13;;;;;;;13.15;6.28;;;;;;;17.05;100.00;100753.63;5051092;28;20036;-57
2023/07/16 05:19:38;;;;;;;8.25;4.93;;;;;;;17.17;100.00;100775.03;5054404;28;20039;-52
2023/07/16 05:22:04;;;;;;;12.32;5.40;;;;;;;17.21;100.00;100784.56;5054108;28;20044;-53
2023/07/16 05:24:30;;;;;;;7.47;5.18;;;;;;;17.17;100.00;100764.41;5029329;28;20041;-55
2023/07/16 05:26:56;;;;;;;8.95;5.68;;;;;;;17.37;100.00;100779.16;5053962;28;20036;-54
2023/07/16 05:29:21;;;;;;;6.55;5.32;;;;;;;17.01;100.00;100721.09;5054116;28;20037;-55
2023/07/16 05:31:47;;;;;;;10.48;5.82;;;;;;;17.43;100.00;100787.63;5054009;28;20104;-56
2023/07/16 05:34:12;;;;;;;12.85;5.90;;;;;;;17.62;100.00;100786.50;5042506;28;20029;-53
2023/07/16 05:36:38;;;;;;;10.07;5.47;;;;;;;17.42;100.00;100722.03;5052667;28;20150;-58
2023/07/16 05:39:03;;;;;;;14.23;6.20;;;;;;;17.82;100.00;100778.13;5054300;28;20040;-58
2023/07/16 05:41:28;;;;;;;13.07;6.32;;;;;;;18.05;100.00;100803.28;5053851;28;20067;-52
2023/07/16 05:43:54;;;;;;;10.90;6.13;;;;;;;17.56;100.00;100702.59;5047802;28;20476;-56
2023/07/16 05:46:19;;;;;;;8.88;5.38;;;;;;;18.00;100.00;100787.63;5033631;28;20488;-59
2023/07/16 05:48:44;;;;;;;10.60;5.72;;;;;;;17.73;100.00;100731.66;5034108;28;20048;-49
2023/07/16 05:51:10;;;;;;;13.25;6.07;;;;;;;18.15;100.00;100807.97;5032716;28;20044;-54
2023/07/16 05:53:35;;;;;;;9.80;5.85;;;;;;;18.11;100.00;100814.44;5032249;28;20562;-55
2023/07/16 05:56:00;;;;;;;12.48;6.03;;;;;;;18.00;100.00;100803.59;5034805;28;20042;-56
2023/07/16 05:58:25;;;;;;;9.10;5.47;;;;;;;17.93;100.00;100811.13;5053879;28;20052;-55
2023/07/16 06:00:51;;;;;;;9.52;5.82;;;;;;;17.44;100.00;100725.47;5053679;28;20040;-60
2023/07/16 06:03:18;;;;;;;9.43;6.30;;;;;;;17.56;100.00;100758.47;5053281;28;20059;-52
2023/07/16 06:05:43;;;;;;;11.77;7.18;;;;;;;17.98;100.00;100805.50;5053303;28;20091;-57
2023/07/16 06:08:09;;;;;;;11.77;6.03;;;;;;;18.03;100.00;100818.53;5033843;28;20477;-55
2023/07/16 06:10:34;;;;;;;12.57;5.82;;;;;;;17.77;100.00;100762.47;5033226;28;20033;-57
2023/07/16 06:13:00;;;;;;;12.23;6.60;;;;;;;18.04;100.00;100814.94;5033401;28;20117;-55
2023/07/16 06:15:25;;;;;;;13.63;6.75;;;;;;;18.08;100.00;100803.97;5033376;28;20444;-57
2023/07/16 06:17:51;;;;;;;11.93;5.82;;;;;;;18.16;100.00;100822.09;5048795;28;20087;-55
2023/07/16 06:20:17;;;;;;;12.90;6.32;;;;;;;18.24;100.00;100831.31;5032846;28;20364;-54
2023/07/16 06:22:42;;;;;;;8.32;5.70;;;;;;;18.26;100.00;100826.78;5033441;28;20121;-53
2023/07/16 06:25:10;;;;;;;11.43;6.75;;;;;;;18.39;100.00;100842.81;5032851;28;20490;-55
2023/07/16 06:27:35;;;;;;;11.40;6.53;;;;;;;18.33;100.00;100828.06;5033309;28;20037;-62
2023/07/16 06:30:01;;;;;;;12.93;5.68;;;;;;;18.07;100.00;100810.22;5033235;28;20045;-58
2023/07/16 06:32:26;;;;;;;10.27;6.10;;;;;;;18.34;100.00;100840.44;5032865;28;20068;-56
2023/07/16 06:34:51;;;;;;;15.02;7.45;;;;;;;18.44;100.00;100854.91;5033328;28;20026;-55
2023/07/16 06:37:17;;;;;;;15.00;6.60;;;;;;;18.47;100.00;100843.19;5032755;28;20473;-56
2023/07/16 06:39:42;;;;;;;9.25;5.45;;;;;;;18.12;100.00;100789.50;5032693;28;20503;-55
2023/07/16 06:42:07;;;;;;;11.65;6.53;;;;;;;18.24;100.00;100798.53;5031550;28;20522;-52
2023/07/16 06:44:33;;;;;;;13.02;5.93;;;;;;;18.69;100.00;100861.31;5031328;28;20036;-52
2023/07/16 06:46:58;;;;;;;15.73;5.90;;;;;;;18.30;100.00;100800.78;5031182;28;20040;-56
2023/07/16 06:49:23;;;;;;;11.98;6.13;;;;;;;18.61;100.00;100868.97;5032690;28;20033;-53
2023/07/16 06:51:49;;;;;;;15.55;7.20;;;;;;;18.43;100.00;100855.84;5033017;28;20040;-60
2023/07/16 06:54:14;;;;;;;10.25;6.25;;;;;;;18.72;100.00;100869.13;5032325;28;20116;-52
2023/07/16 06:56:39;;;;;;;12.95;5.85;;;;;;;18.88;100.00;100860.03;5032607;28;20072;-53
2023/07/16 06:59:05;;;;;;;9.95;5.40;;;;;;;18.35;100.00;100814.66;5031410;28;20465;-60
2023/07/16 07:01:30;;;;;;;9.63;6.35;;;;;;;18.38;100.00;100806.47;5047712;28;20548;-51
2023/07/16 07:03:55;;;;;;;11.38;6.05;;;;;;;18.89;100.00;100879.53;5032287;28;20131;-54
2023/07/16 07:06:21;;;;;;;9.85;6.13;;;;;;;18.98;100.00;100868.25;5032537;28;20041;-58
2023/07/16 07:08:46;;;;;;;9.88;5.72;;;;;;;18.84;100.00;100833.66;5032371;28;20080;-56
2023/07/16 07:11:12;;;;;;;11.70;5.88;;;;;;;19.03;100.00;100834.16;5047792;28;20034;-58
2023/07/16 07:13:37;;;;;;;12.80;6.57;;;;;;;19.46;100.00;100896.16;5032477;28;20449;-56
2023/07/16 07:16:02;;;;;;;14.07;6.30;;;;;;;19.40;100.00;100889.44;5031176;28;20647;-53
2023/07/16 07:18:28;;;;;;;12.25;6.93;;;;;;;19.40;100.00;100886.75;5032495;28;20037;-51
2023/07/16 07:20:53;;;;;;;7.93;6.22;;;;;;;19.61;100.00;100917.31;5032486;28;20135;-57
2023/07/16 07:23:18;;;;;;;11.73;6.18;;;;;;;19.71;100.00;100919.34;5032361;28;20061;-56
2023/07/16 07:25:49;;;;;;;9.77;6.07;;;;;;;19.30;100.00;100860.75;5032315;28;20042;-58
2023/07/16 07:28:15;;;;;;;;;;;;;;;19.47;100.00;100917.41;5032822;28;20041;-55
2023/07/16 07:30:40;;;;;;;11.43;6.17;;;;;;;19.48;100.00;100931.59;5035169;28;19928;-56
2023/07/16 07:33:05;;;;;;;12.02;5.85;;;;;;;19.46;100.00;100923.72;5032108;28;20095;-58
2023/07/16 07:35:31;;;;;;;9.63;6.45;;;;;;;19.30;100.00;100914.13;5032380;28;20443;-57
2023/07/16 07:37:56;;;;;;;9.38;6.38;;;;;;;19.18;100.00;100933.63;5031726;28;20485;-51
2023/07/16 07:40:21;;;;;;;13.82;6.95;;;;;;;19.19;100.00;100933.53;5031279;28;20033;-59
2023/07/16 07:42:47;;;;;;;8.88;5.28;;;;;;;19.25;100.00;100933.13;5032057;28;20126;-53
2023/07/16 07:45:12;;;;;;;8.82;5.65;;;;;;;19.03;100.00;100858.97;5031397;28;20041;-59
2023/07/16 07:47:37;;;;;;;10.25;5.68;;;;;;;19.71;100.00;100936.22;5032282;28;20032;-61
2023/07/16 07:50:03;;;;;;;11.85;6.53;;;;;;;19.58;100.00;100900.66;5032380;28;20074;-56
2023/07/16 07:52:28;;;;;;;9.07;5.55;;;;;;;19.79;100.00;100923.19;5032382;28;20030;-57
2023/07/16 07:54:53;;;;;;;11.43;5.78;;;;;;;19.86;100.00;100942.34;5032215;28;20041;-50
2023/07/16 07:57:20;;;;;;;9.85;5.63;;;;;;;19.71;100.00;100881.97;5031742;28;20083;-52
2023/07/16 07:59:45;;;;;;;8.80;4.88;;;;;;;20.10;100.00;100857.78;5031584;28;20041;-55
2023/07/16 08:02:10;;;;;;;8.93;5.72;;;;;;;20.50;100.00;100896.75;5032301;28;20056;-54
2023/07/16 08:04:36;;;;;;;11.60;6.00;;;;;;;20.81;100.00;100940.84;5047570;28;20499;-55
2023/07/16 08:07:01;;;;;;;13.05;5.85;;;;;;;20.96;100.00;100961.13;5051925;28;20480;-55
2023/07/16 08:09:27;;;;;;;10.30;5.22;;;;;;;20.52;100.00;100913.53;5051839;28;20389;-53
2023/07/16 08:11:52;;;;;;;12.20;6.43;;;;;;;20.80;100.00;100954.34;5051586;28;20037;-53
2023/07/16 08:14:17;;;;;;;6.95;4.35;;;;;;;20.70;100.00;100963.03;5053987;28;20478;-59
2023/07/16 08:16:43;;;;;;;9.68;4.82;;;;;;;20.38;100.00;100977.00;5055843;28;20044;-54
2023/07/16 08:19:09;;;;;;;10.77;4.70;;;;;;;19.74;100.00;100919.13;5055448;28;20049;-54
2023/07/16 08:21:37;;;;;;;7.60;4.70;;;;;;;19.83;100.00;100980.81;5032920;28;20073;-53
2023/07/16 08:24:04;;;;;;;10.48;5.20;;;;;;;19.63;100.00;100984.84;5035434;28;20056;-58
2023/07/16 08:26:29;;;;;;;9.85;4.68;;;;;;;19.26;100.00;100905.50;5035547;28;20125;-51
2023/07/16 08:28:55;;;;;;;9.18;4.65;;;;;;;19.78;100.00;100979.41;5034564;28;20112;-50
2023/07/16 08:31:21;;;;;;;10.82;4.93;;;;;;;20.02;100.00;100983.91;5035602;28;20056;-53
2023/07/16 08:33:46;;;;;;;6.50;4.68;;;;;;;20.26;100.00;100985.91;5035257;28;20099;-52
2023/07/16 08:36:11;;;;;;;9.05;5.22;;;;;;;20.46;100.00;100994.19;5035163;28;20045;-55
2023/07/16 08:38:37;;;;;;;7.70;4.90;;;;;;;20.38;100.00;101003.72;5035374;28;20033;-51
2023/07/16 08:41:02;;;;;;;12.55;5.35;;;;;;;19.91;100.00;100933.03;5035325;28;20285;-53
2023/07/16 08:43:29;;;;;;;10.80;4.95;;;;;;;20.19;100.00;100999.66;5034887;28;20137;-56
2023/07/16 08:45:55;;;;;;;11.75;5.10;;;;;;;20.09;100.00;100997.72;5033479;28;20037;-58
2023/07/16 08:48:22;;;;;;;8.70;4.63;;;;;;;20.06;100.00;100993.44;5050528;28;20388;-58
2023/07/16 08:50:48;;;;;;;8.27;4.55;;;;;;;19.83;100.00;100934.53;5034982;28;20538;-56
2023/07/16 08:53:15;;;;;;;10.55;5.15;;;;;;;19.79;100.00;100941.91;5034548;28;20057;-54
2023/07/16 08:55:43;;;;;;;9.45;5.07;;;;;;;20.06;100.00;100996.09;5033822;28;20110;-55
2023/07/16 08:58:08;;;;;;;11.85;5.00;;;;;;;20.18;100.00;101002.41;5033670;28;20065;-55
2023/07/16 09:00:34;;;;;;;10.38;5.57;;;;;;;20.82;100.00;100990.72;5033361;28;20071;-55
2023/07/16 09:02:59;;;;;;;10.15;5.40;;;;;;;21.39;100.00;100985.63;5032755;28;20025;-55
2023/07/16 09:05:25;;;;;;;7.25;5.35;;;;;;;21.42;100.00;101028.25;5033546;28;20041;-58
2023/07/16 09:07:50;;;;;;;8.70;5.00;;;;;;;21.06;100.00;100951.47;5034721;28;20041;-58
2023/07/16 09:10:16;;;;;;;12.25;6.35;;;;;;;21.27;100.00;100946.38;5034648;28;20148;-57
2023/07/16 09:12:45;;;;;;;10.25;5.07;;;;;;;21.24;100.00;100957.31;5034640;28;20039;-55
2023/07/16 09:15:13;;;;;;;11.93;5.05;;;;;;;20.98;100.00;100956.53;5034863;28;20057;-54
2023/07/16 09:17:39;;;;;;;9.27;5.25;;;;;;;20.86;100.00;101013.63;5049720;28;20481;-54
2023/07/16 09:20:08;;;;;;;12.90;5.38;;;;;;;20.45;100.00;100962.22;5033998;28;20198;-56
2023/07/16 09:22:34;;;;;;;13.85;5.90;;;;;;;20.75;100.00;101006.34;5049210;28;20148;-55
2023/07/16 09:25:00;;;;;;;10.13;6.03;;;;;;;20.40;100.00;100951.03;5032775;28;20056;-55
2023/07/16 09:27:29;;;;;;;10.18;5.80;;;;;;;20.12;100.00;100954.75;5034213;28;20481;-55
2023/07/16 09:29:54;;;;;;;10.23;5.10;;;;;;;19.91;100.00;100958.91;5034351;28;20404;-56
2023/07/16 09:32:20;;;;;;;9.00;5.10;;;;;;;19.82;100.00;100956.88;5034304;28;20037;-57
2023/07/16 09:34:49;;;;;;;11.98;5.00;;;;;;;20.29;100.00;101029.28;5034194;28;20035;-56
2023/07/16 09:37:15;;;;;;;8.93;4.25;;;;;;;19.78;100.00;100944.69;5032350;28;20038;-58
2023/07/16 09:39:41;;;;;;;9.38;4.40;;;;;;;20.16;100.00;101015.03;5032648;28;20037;-59
2023/07/16 09:42:07;;;;;;;9.30;4.82;;;;;;;19.77;100.00;100959.84;5033068;28;20400;-56
2023/07/16 09:44:33;;;;;;;6.65;3.58;;;;;;;20.00;100.00;101049.97;5049473;28;20034;-56
2023/07/16 09:46:58;;;;;;;11.35;4.65;;;;;;;19.55;100.00;100971.16;5015988;28;20038;-59
2023/07/16 09:49:27;;;;;;;13.50;4.78;;;;;;;19.86;100.00;101028.69;5033946;28;20137;-60
2023/07/16 09:51:55;;;;;;;10.88;4.25;;;;;;;20.04;100.00;101046.16;5032608;28;20491;-58
2023/07/16 09:54:20;;;;;;;7.35;3.97;;;;;;;20.48;100.00;100999.44;5047269;28;20088;-58
2023/07/16 09:56:49;;;;;;;9.80;3.92;;;;;;;22.18;100.00;101057.28;5032466;28;20045;-57
2023/07/16 09:59:16;;;;;;;6.15;3.85;;;;;;;23.05;100.00;101096.91;5048881;28;20030;-58
2023/07/16 10:01:42;;;;;;;9.15;4.15;;;;;;;22.79;100.00;101024.72;5030467;28;20119;-57
2023/07/16 10:04:18;;;;;;;9.73;3.97;;;;;;;22.51;100.00;101022.47;5048520;28;20064;-54
2023/07/16 10:07:03;;;;;;;7.93;4.35;;;;;;;22.29;100.00;101078.78;5032387;28;20029;-52
2023/07/16 10:09:42;;;;;;;9.27;4.68;;;;;;;21.56;100.00;101027.19;5033011;28;20485;-59
2023/07/16 10:12:19;;;;;;;10.27;4.22;;;;;;;21.37;100.00;101026.84;5035762;28;20067;-54
2023/07/16 10:14:46;;;;;;;9.98;4.30;;;;;;;21.64;100.00;101075.69;5053434;28;20123;-57
2023/07/16 10:17:25;;;;;;;5.60;3.00;;;;;;;22.30;100.00;101107.28;5053413;28;20361;-59
2023/07/16 10:19:51;;;;;;;7.18;2.67;;;;;;;23.28;100.00;101117.41;5019743;28;20025;-54
2023/07/16 10:22:18;;;;;;;4.15;2.50;;;;;;;23.38;100.00;101068.19;5053389;28;20419;-59
2023/07/16 10:24:43;;;;;;;6.93;2.70;;;;;;;23.78;100.00;101114.16;5051852;28;20069;-60
2023/07/16 10:27:09;;;;;;;5.68;3.20;;;;;;;24.02;100.00;101130.91;5032127;28;20134;-56
2023/07/16 10:29:36;;;;;;;8.23;3.40;;;;;;;24.52;100.00;101128.47;5033164;28;20038;-54
2023/07/16 10:32:02;;;;;;;7.03;2.88;;;;;;;24.39;100.00;101071.34;5033345;28;20037;-55
2023/07/16 10:34:27;;;;;;;5.05;2.60;;;;;;;24.89;100.00;101129.75;5032862;28;20051;-52
2023/07/16 10:36:52;;;;;;;10.82;3.58;;;;;;;24.49;100.00;101075.78;5032938;28;20025;-58
2023/07/16 10:39:18;;;;;;;7.07;3.35;;;;;;;23.91;100.00;101070.94;5032922;28;20083;-59
2023/07/16 10:41:43;;;;;;;8.20;3.42;;;;;;;23.60;100.00;101085.25;5031179;28;20064;-53
2023/07/16 10:44:09;;;;;;;6.25;2.60;;;;;;;23.38;100.00;101127.28;5032815;28;20048;-55
2023/07/16 10:46:36;;;;;;;8.70;3.10;;;;;;;23.10;100.00;101092.88;5033258;28;20083;-54
2023/07/16 10:49:01;;;;;;;7.00;2.63;;;;;;;23.03;100.00;101160.63;5033203;28;20069;-51
2023/07/16 10:51:26;;;;;;;8.60;2.75;;;;;;;23.61;100.00;101155.00;5033114;28;20068;-52
2023/07/16 10:53:55;;;;;;;3.80;2.20;;;;;;;24.22;100.00;101161.56;5032933;28;20037;-50
2023/07/16 10:56:20;;;;;;;5.97;2.38;;;;;;;24.46;100.00;101169.38;5031540;28;20460;-50
2023/07/16 10:58:46;;;;;;;6.57;2.40;;;;;;;24.41;100.00;101139.31;5031330;28;20247;-54
2023/07/16 11:01:11;;;;;;;8.13;2.70;;;;;;;23.94;100.00;101130.69;5031598;28;20041;-52
2023/07/16 11:03:36;;;;;;;7.80;2.58;;;;;;;23.13;100.00;101102.50;5031614;28;20112;-56
2023/07/16 11:06:11;;;;;;;5.20;2.30;;;;;;;22.64;100.00;101105.53;5031180;28;20029;-56
2023/07/16 11:08:37;;;;;;;5.72;2.50;;;;;;;22.49;100.00;101121.00;5032345;28;20061;-58